createdAt,value
2022-12-13T00:00:42.611Z,94.10
2022-12-13T00:03:50.153Z,94.53
2022-12-13T00:06:57.781Z,95.06
2022-12-13T00:10:05.772Z,95.28
2022-12-13T00:13:13.429Z,95.06
2022-12-13T00:16:21.115Z,94.74
2022-12-13T00:19:28.683Z,94.64
2022-12-13T00:22:36.237Z,94.42
2022-12-13T00:25:43.706Z,94.25
2022-12-13T00:28:51.415Z,93.82
2022-12-13T00:32:01.049Z,93.66
2022-12-13T00:35:08.555Z,93.66
2022-12-13T00:38:16.076Z,94.08
2022-12-13T00:41:23.833Z,94.08
2022-12-13T00:44:31.241Z,94.19
2022-12-13T00:47:38.826Z,94.29
2022-12-13T00:50:46.937Z,94.46
2022-12-13T00:53:54.129Z,94.29
2022-12-13T00:57:02.304Z,94.40
2022-12-13T01:00:09.757Z,94.40
2022-12-13T01:03:16.996Z,94.29
2022-12-13T01:06:24.981Z,94.29
2022-12-13T01:09:33.109Z,94.29
2022-12-13T01:12:40.380Z,94.29
2022-12-13T01:15:48.304Z,94.19
2022-12-13T01:18:56.411Z,93.98
2022-12-13T01:22:03.507Z,93.87
2022-12-13T01:25:11.160Z,93.87
2022-12-13T01:28:21.341Z,94.08
2022-12-13T01:31:28.737Z,94.19
2022-12-13T01:34:36.491Z,94.44
2022-12-13T01:37:43.815Z,95.15
2022-12-13T01:40:51.342Z,95.15
2022-12-13T01:43:58.649Z,95.08
2022-12-13T01:47:05.965Z,95.19
2022-12-13T01:50:13.325Z,95.29
2022-12-13T01:53:20.503Z,95.08
2022-12-13T01:56:28.375Z,94.87
2022-12-13T01:59:35.946Z,94.34
2022-12-13T02:02:43.343Z,93.80
2022-12-13T02:05:50.632Z,93.59
2022-12-13T02:08:58.455Z,93.70
2022-12-13T02:12:06.145Z,93.52
2022-12-13T02:15:14.029Z,93.95
2022-12-13T02:18:21.665Z,94.17
2022-12-13T02:21:29.127Z,94.27
2022-12-13T02:24:36.971Z,94.17
2022-12-13T02:27:44.382Z,94.17
2022-12-13T02:30:51.835Z,93.95
2022-12-13T02:33:59.559Z,93.52
2022-12-13T02:37:06.506Z,93.85
2022-12-13T02:40:11.837Z,93.95
2022-12-13T02:43:21.378Z,93.74
2022-12-13T02:46:29.149Z,93.74
2022-12-13T02:49:37.218Z,93.85
2022-12-13T02:52:44.027Z,94.06
2022-12-13T02:55:51.938Z,94.59
2022-12-13T02:58:59.444Z,95.12
2022-12-13T03:02:09.673Z,95.45
2022-12-13T03:05:07.300Z,95.51
2022-12-13T03:08:14.627Z,95.72
2022-12-13T03:11:22.463Z,95.40
2022-12-13T03:14:31.830Z,94.76
2022-12-13T03:17:39.442Z,94.27
2022-12-13T03:20:46.960Z,93.74
2022-12-13T03:23:54.162Z,93.63
2022-12-13T03:27:01.715Z,94.06
2022-12-13T03:30:10.291Z,94.17
2022-12-13T03:33:17.521Z,94.59
2022-12-13T03:36:24.771Z,95.45
2022-12-13T03:39:31.995Z,95.45
2022-12-13T03:42:39.541Z,95.45
2022-12-13T03:45:46.773Z,95.02
2022-12-13T03:48:53.993Z,94.31
2022-12-13T03:52:01.353Z,93.78
2022-12-13T03:55:09.000Z,93.57
2022-12-13T03:58:16.204Z,93.78
2022-12-13T04:01:23.603Z,93.68
2022-12-13T04:04:30.919Z,93.46
2022-12-13T04:07:38.183Z,93.57
2022-12-13T04:10:45.882Z,93.35
2022-12-13T04:13:52.957Z,93.35
2022-12-13T04:17:00.191Z,93.46
2022-12-13T04:20:07.483Z,93.57
2022-12-13T04:23:14.744Z,93.25
2022-12-13T04:26:22.486Z,92.97
2022-12-13T04:29:34.518Z,93.08
2022-12-13T04:32:31.543Z,92.97
2022-12-13T04:35:39.532Z,93.08
2022-12-13T04:38:46.395Z,93.93
2022-12-13T04:41:53.962Z,95.17
2022-12-13T04:45:01.264Z,95.81
2022-12-13T04:48:08.575Z,96.55
2022-12-13T04:51:16.218Z,96.51
2022-12-13T04:54:24.378Z,96.12
2022-12-13T04:57:32.560Z,95.49
2022-12-13T05:00:40.015Z,95.32
2022-12-13T05:03:40.385Z,95.28
2022-12-13T05:06:47.954Z,95.17
2022-12-13T05:09:54.894Z,94.95
2022-12-13T05:13:02.497Z,94.64
2022-12-13T05:16:10.306Z,94.25
2022-12-13T05:19:17.137Z,93.82
2022-12-13T05:22:25.048Z,93.93
2022-12-13T05:25:32.032Z,94.14
2022-12-13T05:28:39.664Z,94.25
2022-12-13T05:31:47.342Z,94.95
2022-12-13T05:34:54.173Z,94.85
2022-12-13T05:38:01.734Z,94.46
2022-12-13T05:41:09.101Z,94.78
2022-12-13T05:44:16.195Z,95.28
2022-12-13T05:47:24.097Z,95.17
2022-12-13T05:50:31.077Z,95.21
2022-12-13T05:53:38.765Z,94.89
2022-12-13T05:56:46.138Z,94.68
2022-12-13T05:59:53.623Z,94.46
2022-12-13T06:03:02.131Z,94.25
2022-12-13T06:06:09.514Z,93.93
2022-12-13T06:09:18.135Z,93.65
2022-12-13T06:12:31.994Z,93.65
2022-12-13T06:15:29.315Z,93.23
2022-12-13T06:18:31.525Z,93.76
2022-12-13T06:21:45.742Z,94.25
2022-12-13T06:24:42.897Z,94.14
2022-12-13T06:27:50.244Z,94.04
2022-12-13T06:30:58.657Z,94.04
2022-12-13T06:34:15.240Z,94.35
2022-12-13T06:37:10.580Z,94.46
2022-12-13T06:40:22.947Z,94.25
2022-12-13T06:43:19.247Z,93.76
2022-12-13T06:46:26.745Z,93.54
2022-12-13T06:49:33.766Z,93.76
2022-12-13T06:52:40.738Z,94.78
2022-12-13T06:55:48.165Z,94.95
2022-12-13T06:59:01.938Z,95.21
2022-12-13T07:02:03.139Z,95.38
2022-12-13T07:05:00.964Z,95.10
2022-12-13T07:08:08.171Z,94.46
2022-12-13T07:11:15.534Z,94.18
2022-12-13T07:14:22.739Z,94.08
2022-12-13T07:17:32.583Z,93.93
2022-12-13T07:20:30.912Z,93.93
2022-12-13T07:23:38.167Z,93.72
2022-12-13T07:26:45.487Z,93.93
2022-12-13T07:29:52.492Z,94.21
2022-12-13T07:32:59.686Z,94.70
2022-12-13T07:36:07.467Z,94.81
2022-12-13T07:39:14.349Z,95.02
2022-12-13T07:42:21.856Z,94.91
2022-12-13T07:45:29.204Z,94.70
2022-12-13T07:48:36.049Z,94.59
2022-12-13T07:51:43.658Z,94.65
2022-12-13T07:54:51.057Z,94.76
2022-12-13T07:57:58.208Z,94.87
2022-12-13T08:01:00.671Z,94.93
2022-12-13T08:04:07.865Z,95.25
2022-12-13T08:07:14.956Z,95.85
2022-12-13T08:10:22.555Z,95.91
2022-12-13T08:13:29.586Z,96.01
2022-12-13T08:16:36.918Z,95.81
2022-12-13T08:19:43.768Z,96.19
2022-12-13T08:22:51.559Z,96.14
2022-12-13T08:25:58.586Z,96.36
2022-12-13T08:29:06.666Z,96.20
2022-12-13T08:32:14.186Z,96.10
2022-12-13T08:35:21.084Z,96.00
2022-12-13T08:38:28.246Z,95.95
2022-12-13T08:41:39.030Z,95.74
2022-12-13T08:44:35.732Z,95.74
2022-12-13T08:47:43.180Z,95.63
2022-12-13T08:50:50.490Z,95.53
2022-12-13T08:54:10.654Z,95.31
2022-12-13T08:57:02.332Z,95.38
2022-12-13T09:00:09.421Z,95.38
2022-12-13T09:03:16.149Z,95.27
2022-12-13T09:06:23.626Z,95.27
2022-12-13T09:09:30.690Z,95.23
2022-12-13T09:12:41.562Z,95.23
2022-12-13T09:15:38.326Z,95.34
2022-12-13T09:18:41.400Z,95.50
2022-12-13T09:21:48.777Z,95.50
2022-12-13T09:24:56.371Z,95.25
2022-12-13T09:27:58.588Z,95.14
2022-12-13T09:31:05.911Z,94.93
2022-12-13T09:34:13.175Z,95.25
2022-12-13T09:37:23.310Z,95.10
2022-12-13T09:40:31.090Z,94.89
2022-12-13T09:43:43.676Z,94.89
2022-12-13T09:46:45.168Z,95.00
2022-12-13T09:49:42.174Z,95.06
2022-12-13T09:52:49.129Z,94.95
2022-12-13T09:56:10.442Z,95.06
2022-12-13T09:59:00.859Z,94.81
2022-12-13T10:02:08.254Z,94.55
2022-12-13T10:05:22.167Z,94.45
2022-12-13T10:08:19.032Z,94.23
2022-12-13T10:11:32.317Z,94.19
2022-12-13T10:14:29.440Z,94.40
2022-12-13T10:17:38.193Z,94.40
2022-12-13T10:20:45.823Z,94.46
2022-12-13T10:24:23.168Z,94.78
2022-12-13T10:26:57.470Z,94.78
2022-12-13T10:30:04.716Z,94.68
2022-12-13T10:33:11.497Z,94.68
2022-12-13T10:36:22.212Z,94.95
2022-12-13T10:39:22.058Z,94.95
2022-12-13T10:42:34.014Z,94.59
2022-12-13T10:45:30.746Z,94.48
2022-12-13T10:48:38.598Z,94.34
2022-12-13T10:51:46.142Z,94.08
2022-12-13T10:54:53.051Z,93.98
2022-12-13T10:57:57.470Z,93.77
2022-12-13T11:01:04.751Z,93.19
2022-12-13T11:04:12.083Z,93.41
2022-12-13T11:07:19.562Z,93.57
2022-12-13T11:10:27.610Z,94.21
2022-12-13T11:13:35.137Z,94.48
2022-12-13T11:16:42.594Z,93.43
2022-12-13T11:19:49.374Z,92.27
2022-12-13T11:22:56.929Z,92.02
2022-12-13T11:26:04.309Z,91.49
2022-12-13T11:29:11.119Z,91.70
2022-12-13T11:32:22.533Z,91.87
2022-12-13T11:35:19.232Z,91.35
2022-12-13T11:38:26.767Z,91.45
2022-12-13T11:41:33.992Z,91.20
2022-12-13T11:44:45.977Z,90.67
2022-12-13T11:47:44.395Z,90.78
2022-12-13T11:50:51.475Z,90.36
2022-12-13T11:53:59.085Z,90.25
2022-12-13T11:57:06.220Z,90.14
2022-12-13T12:00:13.568Z,90.36
2022-12-13T12:03:20.960Z,89.62
2022-12-13T12:06:28.076Z,90.04
2022-12-13T12:09:35.253Z,89.05
2022-12-13T12:12:42.698Z,89.16
2022-12-13T12:15:49.493Z,89.16
2022-12-13T12:18:52.126Z,89.12
2022-12-13T12:22:15.698Z,88.17
2022-12-13T12:25:04.090Z,88.07
2022-12-13T12:28:11.590Z,88.17
2022-12-13T12:31:18.944Z,88.38
2022-12-13T12:34:27.748Z,88.80
2022-12-13T12:37:35.546Z,88.91
2022-12-13T12:43:47.159Z,87.75
2022-12-13T12:47:31.633Z,88.70
2022-12-13T12:49:59.270Z,88.07
2022-12-13T12:53:06.561Z,88.07
2022-12-13T12:56:13.970Z,87.54
2022-12-13T12:59:21.613Z,87.44
2022-12-13T13:02:28.934Z,88.07
2022-12-13T13:05:36.253Z,87.54
2022-12-13T13:08:43.719Z,86.91
2022-12-13T13:11:50.481Z,87.33
2022-12-13T13:14:54.064Z,87.96
2022-12-13T13:18:01.594Z,88.49
2022-12-13T13:21:08.430Z,87.65
2022-12-13T13:24:15.860Z,87.65
2022-12-13T13:27:23.415Z,88.38
2022-12-13T13:30:30.336Z,88.17
2022-12-13T13:33:37.841Z,87.68
2022-12-13T13:36:44.985Z,87.68
2022-12-13T13:39:52.016Z,88.21
2022-12-13T13:43:00.446Z,88.10
2022-12-13T13:46:07.584Z,87.68
2022-12-13T13:49:14.808Z,87.79
2022-12-13T13:52:26.157Z,87.90
2022-12-13T13:55:22.973Z,88.57
2022-12-13T13:58:30.006Z,88.46
2022-12-13T14:01:37.228Z,89.09
2022-12-13T14:04:44.523Z,88.99
2022-12-13T14:07:51.764Z,88.78
2022-12-13T14:10:58.924Z,88.15
2022-12-13T14:14:06.613Z,88.25
2022-12-13T14:17:11.024Z,88.25
2022-12-13T14:20:18.114Z,88.82
2022-12-13T14:23:25.821Z,89.14
2022-12-13T14:26:32.838Z,89.34
2022-12-13T14:29:40.459Z,89.66
2022-12-13T14:32:44.957Z,90.12
2022-12-13T14:35:51.825Z,90.86
2022-12-13T14:38:59.228Z,92.44
2022-12-13T14:42:06.617Z,92.96
2022-12-13T14:45:13.620Z,93.38
2022-12-13T14:48:28.057Z,93.32
2022-12-13T14:51:25.278Z,92.90
2022-12-13T14:54:31.996Z,92.80
2022-12-13T14:57:39.491Z,93.37
2022-12-13T15:00:46.639Z,93.68
2022-12-13T15:03:53.841Z,93.93
2022-12-13T15:07:01.307Z,93.83
2022-12-13T15:10:08.598Z,94.25
2022-12-13T15:13:15.839Z,94.25
2022-12-13T15:16:23.707Z,94.57
2022-12-13T15:19:35.065Z,94.46
2022-12-13T15:22:34.073Z,94.40
2022-12-13T15:25:41.231Z,94.51
2022-12-13T15:28:48.423Z,94.61
2022-12-13T15:31:55.632Z,94.55
2022-12-13T15:35:02.724Z,95.39
2022-12-13T15:38:09.888Z,95.50
2022-12-13T15:41:17.286Z,95.71
2022-12-13T15:44:24.246Z,95.60
2022-12-13T15:47:31.631Z,95.81
2022-12-13T15:50:41.041Z,95.81
2022-12-13T15:53:41.940Z,95.96
2022-12-13T15:56:49.383Z,96.28
2022-12-13T15:59:56.081Z,96.39
2022-12-13T16:03:08.917Z,96.49
2022-12-13T16:06:06.491Z,96.53
2022-12-13T16:09:13.556Z,96.43
2022-12-13T16:12:21.009Z,96.53
2022-12-13T16:15:28.985Z,96.58
2022-12-13T16:18:36.910Z,96.79
2022-12-13T16:21:43.950Z,97.00
2022-12-13T16:24:51.009Z,97.11
2022-12-13T16:27:58.124Z,97.53
2022-12-13T16:31:06.243Z,97.85
2022-12-13T16:34:13.406Z,98.06
2022-12-13T16:37:25.561Z,97.85
2022-12-13T16:40:23.600Z,97.95
2022-12-13T16:43:34.365Z,97.99
2022-12-13T16:47:17.504Z,97.99
2022-12-13T16:49:35.673Z,98.10
2022-12-13T16:52:42.742Z,98.10
2022-12-13T16:55:58.750Z,98.31
2022-12-13T16:58:54.072Z,98.31
2022-12-13T17:02:01.122Z,98.31
2022-12-13T17:05:08.193Z,98.42
2022-12-13T17:08:15.312Z,98.31
2022-12-13T17:11:23.540Z,98.31
2022-12-13T17:14:30.967Z,98.36
2022-12-13T17:17:38.287Z,98.36
2022-12-13T17:20:45.774Z,98.63
2022-12-13T17:23:50.504Z,98.74
2022-12-13T17:26:57.665Z,98.63
2022-12-13T17:30:05.462Z,98.74
2022-12-13T17:33:12.466Z,98.68
2022-12-13T17:36:20.178Z,98.74
2022-12-13T17:39:27.260Z,98.68
2022-12-13T17:42:34.145Z,98.57
2022-12-13T17:45:42.094Z,98.46
2022-12-13T17:48:50.323Z,98.36
2022-12-13T17:51:57.414Z,98.25
2022-12-13T17:55:05.077Z,98.25
2022-12-13T17:58:12.628Z,98.14
2022-12-13T18:01:20.255Z,98.08
2022-12-13T18:04:27.835Z,98.40
2022-12-13T18:07:35.085Z,98.40
2022-12-13T18:10:42.056Z,98.30
2022-12-13T18:13:49.652Z,98.30
2022-12-13T18:16:51.404Z,98.19
2022-12-13T18:19:58.864Z,98.13
2022-12-13T18:23:05.687Z,98.13
2022-12-13T18:26:13.152Z,98.24
2022-12-13T18:29:20.305Z,98.24
2022-12-13T18:32:27.250Z,98.13
2022-12-13T18:35:34.437Z,98.13
2022-12-13T18:38:41.383Z,97.81
2022-12-13T18:41:49.055Z,97.71
2022-12-13T18:44:56.786Z,97.71
2022-12-13T18:48:03.906Z,97.64
2022-12-13T18:51:11.506Z,97.64
2022-12-13T18:54:19.413Z,97.64
2022-12-13T18:57:26.442Z,97.85
2022-12-13T19:00:33.917Z,97.75
2022-12-13T19:03:41.117Z,97.75
2022-12-13T19:06:48.343Z,97.75
2022-12-13T19:09:56.002Z,97.90
2022-12-13T19:13:03.333Z,97.79
2022-12-13T19:16:10.870Z,97.79
2022-12-13T19:19:18.474Z,97.90
2022-12-13T19:22:26.006Z,97.79
2022-12-13T19:25:33.035Z,97.73
2022-12-13T19:28:40.730Z,97.63
2022-12-13T19:31:48.104Z,97.63
2022-12-13T19:34:55.567Z,97.52
2022-12-13T19:38:02.847Z,97.35
2022-12-13T19:41:10.720Z,97.24
2022-12-13T19:44:17.908Z,97.03
2022-12-13T19:47:25.078Z,96.92
2022-12-13T19:50:32.389Z,96.92
2022-12-13T19:53:39.569Z,96.97
2022-12-13T19:56:47.146Z,96.86
2022-12-13T19:59:54.886Z,96.86
2022-12-13T20:03:02.031Z,96.76
2022-12-13T20:06:09.625Z,96.76
2022-12-13T20:09:17.194Z,96.76
2022-12-13T20:12:24.035Z,96.65
2022-12-13T20:15:31.624Z,96.69
2022-12-13T20:18:38.693Z,96.59
2022-12-13T20:21:46.082Z,96.59
2022-12-13T20:24:53.747Z,96.59
2022-12-13T20:28:01.072Z,96.69
2022-12-13T20:31:08.402Z,96.59
2022-12-13T20:34:15.671Z,96.53
2022-12-13T20:37:22.592Z,96.42
2022-12-13T20:40:30.247Z,96.53
2022-12-13T20:43:37.548Z,96.53
2022-12-13T20:46:45.244Z,96.63
2022-12-13T20:49:52.553Z,96.80
2022-12-13T20:52:59.877Z,96.91
2022-12-13T20:56:07.356Z,96.91
2022-12-13T20:59:15.117Z,97.02
2022-12-13T21:02:22.354Z,96.91
2022-12-13T21:05:29.571Z,96.73
2022-12-13T21:08:36.968Z,96.73
2022-12-13T21:11:44.855Z,96.73
2022-12-13T21:14:52.393Z,96.73
2022-12-13T21:17:59.835Z,96.73
2022-12-13T21:21:07.373Z,96.73
2022-12-13T21:24:14.554Z,96.73
2022-12-13T21:27:21.899Z,96.53
2022-12-13T21:30:29.335Z,96.53
2022-12-13T21:33:36.054Z,96.53
2022-12-13T21:36:43.592Z,96.73
2022-12-13T21:39:51.274Z,96.84
2022-12-13T21:42:58.090Z,96.84
2022-12-13T21:46:05.063Z,97.06
2022-12-13T21:49:12.593Z,97.06
2022-12-13T21:52:19.599Z,97.44
2022-12-13T21:55:38.743Z,97.22
2022-12-13T21:58:31.893Z,97.02
2022-12-13T22:01:39.305Z,96.80
2022-12-13T22:04:46.676Z,97.12
2022-12-13T22:07:53.975Z,96.91
2022-12-13T22:11:01.571Z,96.80
2022-12-13T22:14:08.638Z,97.02
2022-12-13T22:17:16.240Z,96.91
2022-12-13T22:20:23.891Z,96.76
2022-12-13T22:23:30.782Z,96.65
2022-12-13T22:26:38.361Z,96.48
2022-12-13T22:29:45.782Z,96.48
2022-12-13T22:32:52.548Z,96.27
2022-12-13T22:35:59.986Z,96.06
2022-12-13T22:39:07.756Z,95.95
2022-12-13T22:42:14.590Z,95.74
2022-12-13T22:45:22.336Z,95.84
2022-12-13T22:48:29.856Z,95.84
2022-12-13T22:51:37.330Z,96.06
2022-12-13T22:54:45.032Z,95.95
2022-12-13T22:57:52.455Z,96.06
2022-12-13T23:00:59.839Z,96.06
2022-12-13T23:04:07.517Z,96.06
2022-12-13T23:07:14.874Z,96.16
2022-12-13T23:10:22.203Z,95.74
2022-12-13T23:13:29.297Z,95.78
2022-12-13T23:16:36.767Z,96.06
2022-12-13T23:19:49.621Z,96.16
2022-12-13T23:22:48.845Z,96.37
2022-12-13T23:25:56.343Z,96.37
2022-12-13T23:29:03.188Z,96.16
2022-12-13T23:32:10.788Z,96.16
2022-12-13T23:35:18.455Z,96.06
2022-12-13T23:38:25.717Z,96.27
2022-12-13T23:41:34.155Z,96.48
2022-12-13T23:44:34.125Z,96.48
2022-12-13T23:47:41.097Z,96.37
2022-12-13T23:50:48.719Z,96.27
2022-12-13T23:53:55.925Z,96.06
2022-12-13T23:57:03.143Z,96.16
